sensor_id;sensor_type;location;lat;lon;timestamp;pressure;altitude;pressure_sealevel;temperature;humidity
18509;BME280;9383;50.928;12.116;2023-02-18T00:00:26;99189.31;;;9.44;100.00
18509;BME280;9383;50.928;12.116;2023-02-18T00:02:53;99188.41;;;9.43;100.00
18509;BME280;9383;50.928;12.116;2023-02-18T00:05:21;99186.69;;;9.42;100.00
18509;BME280;9383;50.928;12.116;2023-02-18T00:07:47;99185.88;;;9.40;100.00
18509;BME280;9383;50.928;12.116;2023-02-18T00:10:17;99184.94;;;9.41;100.00
18509;BME280;9383;50.928;12.116;2023-02-18T00:12:45;99193.81;;;9.40;100.00
18509;BME280;9383;50.928;12.116;2023-02-18T00:15:12;99191.19;;;9.39;100.00
18509;BME280;9383;50.928;12.116;2023-02-18T00:17:38;99196.47;;;9.39;100.00
18509;BME280;9383;50.928;12.116;2023-02-18T00:20:06;99190.34;;;9.38;100.00
18509;BME280;9383;50.928;12.116;2023-02-18T00:22:35;99191.19;;;9.39;100.00
18509;BME280;9383;50.928;12.116;2023-02-18T00:25:01;99188.59;;;9.37;100.00
18509;BME280;9383;50.928;12.116;2023-02-18T00:27:28;99193.00;;;9.37;100.00
18509;BME280;9383;50.928;12.116;2023-02-18T00:29:54;99175.44;;;9.34;100.00
18509;BME280;9383;50.928;12.116;2023-02-18T00:32:21;99180.78;;;9.33;100.00
18509;BME280;9383;50.928;12.116;2023-02-18T00:34:47;99184.28;;;9.33;100.00
18509;BME280;9383;50.928;12.116;2023-02-18T00:37:14;99189.56;;;9.33;100.00
18509;BME280;9383;50.928;12.116;2023-02-18T00:39:40;99194.91;;;9.32;100.00
18509;BME280;9383;50.928;12.116;2023-02-18T00:42:08;99187.84;;;9.32;100.00
18509;BME280;9383;50.928;12.116;2023-02-18T00:44:34;99187.91;;;9.29;100.00
18509;BME280;9383;50.928;12.116;2023-02-18T00:47:05;99188.81;;;9.29;100.00
18509;BME280;9383;50.928;12.116;2023-02-18T00:49:33;99181.81;;;9.27;100.00
18509;BME280;9383;50.928;12.116;2023-02-18T00:52:00;99186.28;;;9.25;100.00
18509;BME280;9383;50.928;12.116;2023-02-18T00:54:28;99189.84;;;9.22;100.00
18509;BME280;9383;50.928;12.116;2023-02-18T00:56:54;99180.22;;;9.20;100.00
18509;BME280;9383;50.928;12.116;2023-02-18T00:59:21;99185.50;;;9.20;100.00
18509;BME280;9383;50.928;12.116;2023-02-18T01:01:49;99192.63;;;9.18;100.00
18509;BME280;9383;50.928;12.116;2023-02-18T01:04:15;99197.06;;;9.17;100.00
18509;BME280;9383;50.928;12.116;2023-02-18T01:06:42;99197.97;;;9.14;100.00
18509;BME280;9383;50.928;12.116;2023-02-18T01:09:09;99194.53;;;9.11;100.00
18509;BME280;9383;50.928;12.116;2023-02-18T01:11:36;99187.53;;;9.08;100.00
18509;BME280;9383;50.928;12.116;2023-02-18T01:14:03;99188.44;;;9.07;100.00
18509;BME280;9383;50.928;12.116;2023-02-18T01:16:29;99189.38;;;9.06;100.00
18509;BME280;9383;50.928;12.116;2023-02-18T01:18:56;99189.41;;;9.05;100.00
18509;BME280;9383;50.928;12.116;2023-02-18T01:21:23;99184.16;;;9.03;100.00
18509;BME280;9383;50.928;12.116;2023-02-18T01:23:49;99193.03;;;9.00;100.00
18509;BME280;9383;50.928;12.116;2023-02-18T01:26:16;99193.03;;;9.00;100.00
18509;BME280;9383;50.928;12.116;2023-02-18T01:28:44;99188.66;;;8.99;100.00
18509;BME280;9383;50.928;12.116;2023-02-18T01:31:13;99193.09;;;8.97;100.00
18509;BME280;9383;50.928;12.116;2023-02-18T01:33:40;99188.81;;;8.93;100.00
18509;BME280;9383;50.928;12.116;2023-02-18T01:36:10;99181.78;;;8.92;100.00
18509;BME280;9383;50.928;12.116;2023-02-18T01:38:37;99177.53;;;8.85;100.00
18509;BME280;9383;50.928;12.116;2023-02-18T01:41:04;99169.63;;;8.83;100.00
18509;BME280;9383;50.928;12.116;2023-02-18T01:43:31;99172.34;;;8.82;100.00
18509;BME280;9383;50.928;12.116;2023-02-18T01:46:13;99181.19;;;8.81;100.00
18509;BME280;9383;50.928;12.116;2023-02-18T01:48:58;99185.66;;;8.77;100.00
18509;BME280;9383;50.928;12.116;2023-02-18T01:51:28;99182.22;;;8.73;100.00
18509;BME280;9383;50.928;12.116;2023-02-18T01:54:12;99175.19;;;8.72;100.00
18509;BME280;9383;50.928;12.116;2023-02-18T01:57:05;99188.56;;;8.66;100.00
18509;BME280;9383;50.928;12.116;2023-02-18T01:59:37;99191.25;;;8.63;100.00
18509;BME280;9383;50.928;12.116;2023-02-18T02:02:06;99183.41;;;8.60;100.00
18509;BME280;9383;50.928;12.116;2023-02-18T02:04:33;99186.16;;;8.55;100.00
18509;BME280;9383;50.928;12.116;2023-02-18T02:07:00;99180.94;;;8.52;100.00
18509;BME280;9383;50.928;12.116;2023-02-18T02:09:28;99181.84;;;8.50;100.00
18509;BME280;9383;50.928;12.116;2023-02-18T02:14:51;99198.69;;;8.44;100.00
18509;BME280;9383;50.928;12.116;2023-02-18T02:29:04;99193.66;;;8.33;100.00
18509;BME280;9383;50.928;12.116;2023-02-18T02:34:35;99194.66;;;8.27;100.00
18509;BME280;9383;50.928;12.116;2023-02-18T02:50:44;99177.19;;;8.20;100.00
18509;BME280;9383;50.928;12.116;2023-02-18T02:53:17;99183.44;;;8.18;100.00
18509;BME280;9383;50.928;12.116;2023-02-18T02:55:46;99176.34;;;8.18;100.00
18509;BME280;9383;50.928;12.116;2023-02-18T02:58:17;99173.72;;;8.18;100.00
18509;BME280;9383;50.928;12.116;2023-02-18T03:00:58;99173.78;;;8.16;100.00
18509;BME280;9383;50.928;12.116;2023-02-18T03:04:02;99160.59;;;8.15;100.00
18509;BME280;9383;50.928;12.116;2023-02-18T03:06:42;99164.13;;;8.14;100.00
18509;BME280;9383;50.928;12.116;2023-02-18T03:09:39;99170.31;;;8.13;100.00
18509;BME280;9383;50.928;12.116;2023-02-18T03:12:24;99151.03;;;8.08;100.00
18509;BME280;9383;50.928;12.116;2023-02-18T03:15:04;99162.50;;;8.07;100.00
18509;BME280;9383;50.928;12.116;2023-02-18T03:21:07;99165.97;;;8.10;100.00
18509;BME280;9383;50.928;12.116;2023-02-18T03:23:18;99168.59;;;8.12;100.00
18509;BME280;9383;50.928;12.116;2023-02-18T03:25:46;99173.88;;;8.12;100.00
18509;BME280;9383;50.928;12.116;2023-02-18T03:28:17;99156.28;;;8.11;100.00
18509;BME280;9383;50.928;12.116;2023-02-18T03:30:49;99153.66;;;8.11;100.00
18509;BME280;9383;50.928;12.116;2023-02-18T03:33:27;99158.03;;;8.12;100.00
18509;BME280;9383;50.928;12.116;2023-02-18T03:35:58;99153.59;;;8.12;100.00
18509;BME280;9383;50.928;12.116;2023-02-18T03:38:39;99156.19;;;8.15;100.00
18509;BME280;9383;50.928;12.116;2023-02-18T03:41:08;99154.41;;;8.16;100.00
18509;BME280;9383;50.928;12.116;2023-02-18T03:43:35;99151.75;;;8.16;100.00
18509;BME280;9383;50.928;12.116;2023-02-18T03:46:02;99156.13;;;8.17;100.00
18509;BME280;9383;50.928;12.116;2023-02-18T03:48:30;99157.88;;;8.18;100.00
18509;BME280;9383;50.928;12.116;2023-02-18T03:50:57;99154.31;;;8.19;100.00
18509;BME280;9383;50.928;12.116;2023-02-18T03:53:25;99156.06;;;8.20;100.00
18509;BME280;9383;50.928;12.116;2023-02-18T03:55:51;99149.03;;;8.21;100.00
18509;BME280;9383;50.928;12.116;2023-02-18T03:58:17;99147.22;;;8.23;100.00
18509;BME280;9383;50.928;12.116;2023-02-18T04:00:44;99149.84;;;8.23;100.00
18509;BME280;9383;50.928;12.116;2023-02-18T04:03:13;99154.22;;;8.24;100.00
18509;BME280;9383;50.928;12.116;2023-02-18T04:05:40;99160.41;;;8.23;100.00
18509;BME280;9383;50.928;12.116;2023-02-18T04:08:08;99155.13;;;8.24;100.00
18509;BME280;9383;50.928;12.116;2023-02-18T04:10:35;99148.03;;;8.25;100.00
18509;BME280;9383;50.928;12.116;2023-02-18T04:13:01;99156.81;;;8.27;100.00
18509;BME280;9383;50.928;12.116;2023-02-18T04:15:28;99149.75;;;8.27;100.00
18509;BME280;9383;50.928;12.116;2023-02-18T04:17:55;99150.66;;;8.28;100.00
18509;BME280;9383;50.928;12.116;2023-02-18T04:20:22;99113.16;;;8.10;100.00
18509;BME280;9383;50.928;12.116;2023-02-18T04:22:48;99148.00;;;8.28;100.00
18509;BME280;9383;50.928;12.116;2023-02-18T04:25:15;99143.53;;;8.30;100.00
18509;BME280;9383;50.928;12.116;2023-02-18T04:27:42;99139.16;;;8.29;100.00
18509;BME280;9383;50.928;12.116;2023-02-18T04:30:09;99146.19;;;8.30;100.00
18509;BME280;9383;50.928;12.116;2023-02-18T04:32:36;99137.34;;;8.31;100.00
18509;BME280;9383;50.928;12.116;2023-02-18T04:35:04;99128.53;;;8.32;100.00
18509;BME280;9383;50.928;12.116;2023-02-18T04:37:31;99122.38;;;8.31;100.00
18509;BME280;9383;50.928;12.116;2023-02-18T04:39:58;99123.25;;;8.32;100.00
18509;BME280;9383;50.928;12.116;2023-02-18T04:42:24;99124.97;;;8.33;100.00
18509;BME280;9383;50.928;12.116;2023-02-18T04:44:50;99124.97;;;8.33;100.00
18509;BME280;9383;50.928;12.116;2023-02-18T04:47:17;99121.44;;;8.34;100.00
18509;BME280;9383;50.928;12.116;2023-02-18T04:49:44;99119.69;;;8.35;100.00
18509;BME280;9383;50.928;12.116;2023-02-18T04:52:10;99099.41;;;8.35;100.00
18509;BME280;9383;50.928;12.116;2023-02-18T04:54:37;99133.72;;;8.35;100.00
18509;BME280;9383;50.928;12.116;2023-02-18T04:57:04;99119.69;;;8.35;100.00
18509;BME280;9383;50.928;12.116;2023-02-18T04:59:30;99116.22;;;8.31;100.00
18509;BME280;9383;50.928;12.116;2023-02-18T05:01:57;99109.16;;;8.31;100.00
18509;BME280;9383;50.928;12.116;2023-02-18T05:04:24;99100.31;;;8.33;100.00
18509;BME280;9383;50.928;12.116;2023-02-18T05:06:51;99098.56;;;8.33;100.00
18509;BME280;9383;50.928;12.116;2023-02-18T05:09:18;99102.94;;;8.34;100.00
18509;BME280;9383;50.928;12.116;2023-02-18T05:11:45;99098.59;;;8.31;100.00
18509;BME280;9383;50.928;12.116;2023-02-18T05:14:13;99091.56;;;8.30;100.00
18509;BME280;9383;50.928;12.116;2023-02-18T05:16:40;99098.59;;;8.31;100.00
18509;BME280;9383;50.928;12.116;2023-02-18T05:19:06;99084.47;;;8.33;100.00
18509;BME280;9383;50.928;12.116;2023-02-18T05:21:33;99071.28;;;8.33;100.00
18509;BME280;9383;50.928;12.116;2023-02-18T05:24:00;99066.88;;;8.33;100.00
18509;BME280;9383;50.928;12.116;2023-02-18T05:26:27;99073.00;;;8.34;100.00
18509;BME280;9383;50.928;12.116;2023-02-18T05:28:53;99067.72;;;8.34;100.00
18509;BME280;9383;50.928;12.116;2023-02-18T05:31:20;99073.88;;;8.34;100.00
18509;BME280;9383;50.928;12.116;2023-02-18T05:33:46;99057.16;;;8.34;100.00
18509;BME280;9383;50.928;12.116;2023-02-18T05:36:13;99056.31;;;8.33;100.00
18509;BME280;9383;50.928;12.116;2023-02-18T05:38:39;99049.31;;;8.30;100.00
18509;BME280;9383;50.928;12.116;2023-02-18T05:41:07;99050.22;;;8.29;100.00
18509;BME280;9383;50.928;12.116;2023-02-18T05:43:33;99037.00;;;8.29;100.00
18509;BME280;9383;50.928;12.116;2023-02-18T05:46:19;99019.47;;;8.27;100.00
18509;BME280;9383;50.928;12.116;2023-02-18T05:48:45;99024.81;;;8.25;100.00
18509;BME280;9383;50.928;12.116;2023-02-18T05:51:12;99018.69;;;8.23;100.00
18509;BME280;9383;50.928;12.116;2023-02-18T05:53:38;99009.03;;;8.22;100.00
18509;BME280;9383;50.928;12.116;2023-02-18T05:56:06;99016.97;;;8.22;100.00
18509;BME280;9383;50.928;12.116;2023-02-18T05:58:33;99012.56;;;8.21;100.00
18509;BME280;9383;50.928;12.116;2023-02-18T06:00:59;99011.69;;;8.21;100.00
18509;BME280;9383;50.928;12.116;2023-02-18T06:03:26;99006.41;;;8.21;100.00
18509;BME280;9383;50.928;12.116;2023-02-18T06:05:53;98996.75;;;8.20;100.00
18509;BME280;9383;50.928;12.116;2023-02-18T06:08:19;98993.25;;;8.19;100.00
18509;BME280;9383;50.928;12.116;2023-02-18T06:10:46;98983.59;;;8.18;100.00
18509;BME280;9383;50.928;12.116;2023-02-18T06:13:14;98970.44;;;8.16;100.00
18509;BME280;9383;50.928;12.116;2023-02-18T06:15:41;98974.84;;;8.16;100.00
18509;BME280;9383;50.928;12.116;2023-02-18T06:18:08;98981.06;;;8.13;100.00
18509;BME280;9383;50.928;12.116;2023-02-18T06:20:34;98976.75;;;8.11;100.00
18509;BME280;9383;50.928;12.116;2023-02-18T06:23:01;98973.25;;;8.09;100.00
18509;BME280;9383;50.928;12.116;2023-02-18T06:25:29;98972.41;;;8.07;100.00
18509;BME280;9383;50.928;12.116;2023-02-18T06:27:57;98976.84;;;8.06;100.00
18509;BME280;9383;50.928;12.116;2023-02-18T06:30:24;98980.41;;;8.03;100.00
18509;BME280;9383;50.928;12.116;2023-02-18T06:32:51;98983.94;;;8.04;100.00
18509;BME280;9383;50.928;12.116;2023-02-18T06:35:17;98983.09;;;8.02;100.00
18509;BME280;9383;50.928;12.116;2023-02-18T06:37:44;98979.56;;;8.03;100.00
18509;BME280;9383;50.928;12.116;2023-02-18T06:40:11;98971.66;;;8.03;100.00
18509;BME280;9383;50.928;12.116;2023-02-18T06:42:37;98970.69;;;8.06;100.00
18509;BME280;9383;50.928;12.116;2023-02-18T06:45:04;98959.22;;;8.07;100.00
18509;BME280;9383;50.928;12.116;2023-02-18T06:47:33;98958.25;;;8.11;100.00
18509;BME280;9383;50.928;12.116;2023-02-18T06:50:01;98953.81;;;8.13;100.00
18509;BME280;9383;50.928;12.116;2023-02-18T06:52:29;98938.69;;;8.18;100.00
18509;BME280;9383;50.928;12.116;2023-02-18T06:54:57;98940.38;;;8.22;100.00
18509;BME280;9383;50.928;12.116;2023-02-18T06:57:23;98948.22;;;8.25;100.00
18509;BME280;9383;50.928;12.116;2023-02-18T06:59:50;98945.47;;;8.30;100.00
18509;BME280;9383;50.928;12.116;2023-02-18T07:02:16;98944.50;;;8.33;100.00
18509;BME280;9383;50.928;12.116;2023-02-18T07:04:45;98945.25;;;8.38;100.00
18509;BME280;9383;50.928;12.116;2023-02-18T07:07:13;98954.81;;;8.42;100.00
18509;BME280;9383;50.928;12.116;2023-02-18T07:09:40;98949.44;;;8.47;100.00
18509;BME280;9383;50.928;12.116;2023-02-18T07:12:07;98943.19;;;8.51;100.00
18509;BME280;9383;50.928;12.116;2023-02-18T07:14:34;98929.84;;;8.55;100.00
18509;BME280;9383;50.928;12.116;2023-02-18T07:17:02;98935.00;;;8.60;100.00
18509;BME280;9383;50.928;12.116;2023-02-18T07:19:30;98928.72;;;8.64;100.00
18509;BME280;9383;50.928;12.116;2023-02-18T07:21:57;98922.47;;;8.68;100.00
18509;BME280;9383;50.928;12.116;2023-02-18T07:24:24;98924.13;;;8.71;100.00
18509;BME280;9383;50.928;12.116;2023-02-18T07:26:51;98923.16;;;8.75;100.00
18509;BME280;9383;50.928;12.116;2023-02-18T07:29:18;98913.31;;;8.80;100.00
18509;BME280;9383;50.928;12.116;2023-02-18T07:31:46;98910.56;;;8.83;100.00
18509;BME280;9383;50.928;12.116;2023-02-18T07:34:14;98912.19;;;8.89;100.00
18509;BME280;9383;50.928;12.116;2023-02-18T07:36:42;98903.31;;;8.92;100.00
18509;BME280;9383;50.928;12.116;2023-02-18T07:39:09;98904.03;;;8.97;100.00
18509;BME280;9383;50.928;12.116;2023-02-18T07:41:38;98907.44;;;9.00;100.00
18509;BME280;9383;50.928;12.116;2023-02-18T07:44:05;98902.91;;;9.06;100.00
18509;BME280;9383;50.928;12.116;2023-02-18T07:46:33;98894.84;;;9.10;100.00
18509;BME280;9383;50.928;12.116;2023-02-18T07:49:01;98896.38;;;9.18;100.00
18509;BME280;9383;50.928;12.116;2023-02-18T07:51:29;98886.56;;;9.23;100.00
18509;BME280;9383;50.928;12.116;2023-02-18T07:53:57;98877.59;;;9.27;100.00
18509;BME280;9383;50.928;12.116;2023-02-18T07:56:24;98888.06;;;9.30;100.00
18509;BME280;9383;50.928;12.116;2023-02-18T07:58:52;98888.84;;;9.34;100.00
18509;BME280;9383;50.928;12.116;2023-02-18T08:01:20;98885.19;;;9.38;100.00
18509;BME280;9383;50.928;12.116;2023-02-18T08:03:47;98893.91;;;9.41;100.00
18509;BME280;9383;50.928;12.116;2023-02-18T08:06:21;98888.41;;;9.48;100.00
18509;BME280;9383;50.928;12.116;2023-02-18T08:08:51;98884.69;;;9.53;100.00
18509;BME280;9383;50.928;12.116;2023-02-18T08:11:18;98880.06;;;9.60;100.00
18509;BME280;9383;50.928;12.116;2023-02-18T08:13:45;98887.03;;;9.64;100.00
18509;BME280;9383;50.928;12.116;2023-02-18T08:16:13;98878.94;;;9.69;100.00
18509;BME280;9383;50.928;12.116;2023-02-18T08:18:40;98884.09;;;9.74;100.00
18509;BME280;9383;50.928;12.116;2023-02-18T08:21:09;98877.69;;;9.79;100.00
18509;BME280;9383;50.928;12.116;2023-02-18T08:23:35;98878.44;;;9.84;100.00
18509;BME280;9383;50.928;12.116;2023-02-18T08:26:03;98881.78;;;9.90;100.00
18509;BME280;9383;50.928;12.116;2023-02-18T08:28:29;98884.28;;;9.94;100.00
18509;BME280;9383;50.928;12.116;2023-02-18T08:30:58;98873.66;;;9.96;100.00
18509;BME280;9383;50.928;12.116;2023-02-18T08:33:24;98875.31;;;9.98;100.00
18509;BME280;9383;50.928;12.116;2023-02-18T08:35:52;98862.84;;;10.02;99.69
18509;BME280;9383;50.928;12.116;2023-02-18T08:38:21;98865.41;;;10.05;100.00
18509;BME280;9383;50.928;12.116;2023-02-18T08:40:48;98859.09;;;10.08;100.00
18509;BME280;9383;50.928;12.116;2023-02-18T08:43:17;98846.75;;;10.08;99.63
18509;BME280;9383;50.928;12.116;2023-02-18T08:45:46;98851.00;;;10.12;100.00
18509;BME280;9383;50.928;12.116;2023-02-18T08:48:13;98851.81;;;10.14;100.00
18509;BME280;9383;50.928;12.116;2023-02-18T08:50:40;98850.91;;;10.16;99.67
18509;BME280;9383;50.928;12.116;2023-02-18T08:53:07;98846.44;;;10.18;99.39
18509;BME280;9383;50.928;12.116;2023-02-18T08:55:34;98844.59;;;10.20;99.93
18509;BME280;9383;50.928;12.116;2023-02-18T08:58:04;98815.00;;;10.07;99.01
18509;BME280;9383;50.928;12.116;2023-02-18T09:00:31;98851.50;;;10.24;99.03
18509;BME280;9383;50.928;12.116;2023-02-18T09:02:58;98840.78;;;10.27;99.18
18509;BME280;9383;50.928;12.116;2023-02-18T09:05:24;98845.97;;;10.30;99.28
18509;BME280;9383;50.928;12.116;2023-02-18T09:07:51;98835.34;;;10.32;99.18
18509;BME280;9383;50.928;12.116;2023-02-18T09:10:18;98839.66;;;10.34;99.19
18509;BME280;9383;50.928;12.116;2023-02-18T09:12:44;98835.13;;;10.38;99.64
18509;BME280;9383;50.928;12.116;2023-02-18T09:15:11;98818.31;;;10.39;99.08
18509;BME280;9383;50.928;12.116;2023-02-18T09:17:38;98808.47;;;10.43;98.46
18509;BME280;9383;50.928;12.116;2023-02-18T09:20:05;98787.19;;;10.46;98.86
18509;BME280;9383;50.928;12.116;2023-02-18T09:22:33;98794.97;;;10.50;97.66
18509;BME280;9383;50.928;12.116;2023-02-18T09:24:59;98787.75;;;10.54;97.88
18509;BME280;9383;50.928;12.116;2023-02-18T09:27:26;98786.72;;;10.58;97.95
18509;BME280;9383;50.928;12.116;2023-02-18T09:29:52;98785.66;;;10.62;97.58
18509;BME280;9383;50.928;12.116;2023-02-18T09:32:19;98790.94;;;10.64;98.20
18509;BME280;9383;50.928;12.116;2023-02-18T09:34:46;98783.66;;;10.69;97.92
18509;BME280;9383;50.928;12.116;2023-02-18T09:37:13;98804.75;;;10.72;98.39
18509;BME280;9383;50.928;12.116;2023-02-18T09:39:43;98793.13;;;10.76;98.25
18509;BME280;9383;50.928;12.116;2023-02-18T09:42:17;98803.56;;;10.81;98.42
18509;BME280;9383;50.928;12.116;2023-02-18T09:44:53;98797.25;;;10.83;98.04
18509;BME280;9383;50.928;12.116;2023-02-18T09:50:07;98797.94;;;10.89;96.14
18509;BME280;9383;50.928;12.116;2023-02-18T09:52:36;98798.63;;;10.94;96.68
18509;BME280;9383;50.928;12.116;2023-02-18T09:55:17;98789.75;;;10.95;97.02
18509;BME280;9383;50.928;12.116;2023-02-18T09:57:50;98801.09;;;10.98;96.10
18509;BME280;9383;50.928;12.116;2023-02-18T10:00:38;98793.09;;;11.00;96.21
18509;BME280;9383;50.928;12.116;2023-02-18T10:03:14;98784.09;;;11.04;95.90
18509;BME280;9383;50.928;12.116;2023-02-18T10:05:54;98776.00;;;11.07;96.02
18509;BME280;9383;50.928;12.116;2023-02-18T10:08:27;98761.81;;;11.08;96.11
18509;BME280;9383;50.928;12.116;2023-02-18T10:10:55;98767.91;;;11.10;95.22
18509;BME280;9383;50.928;12.116;2023-02-18T10:13:29;98759.84;;;11.14;94.58
18509;BME280;9383;50.928;12.116;2023-02-18T10:15:57;98755.34;;;11.16;94.98
18509;BME280;9383;50.928;12.116;2023-02-18T10:18:30;98752.56;;;11.19;95.00
18509;BME280;9383;50.928;12.116;2023-02-18T10:21:05;98758.59;;;11.22;94.41
18509;BME280;9383;50.928;12.116;2023-02-18T10:23:36;98750.56;;;11.24;93.55
18509;BME280;9383;50.928;12.116;2023-02-18T10:26:06;98750.47;;;11.27;92.78
18509;BME280;9383;50.928;12.116;2023-02-18T10:28:37;98761.88;;;11.29;92.46
18509;BME280;9383;50.928;12.116;2023-02-18T10:31:08;98757.34;;;11.31;91.94
18509;BME280;9383;50.928;12.116;2023-02-18T10:33:45;98751.91;;;11.34;92.53
18509;BME280;9383;50.928;12.116;2023-02-18T10:36:50;98733.19;;;11.37;92.53
18509;BME280;9383;50.928;12.116;2023-02-18T10:39:39;98757.84;;;11.41;92.37
18509;BME280;9383;50.928;12.116;2023-02-18T10:45:27;98730.31;;;11.44;90.15
18509;BME280;9383;50.928;12.116;2023-02-18T10:50:41;98723.13;;;11.46;89.99
18509;BME280;9383;50.928;12.116;2023-02-18T10:53:23;98716.75;;;11.50;90.45
18509;BME280;9383;50.928;12.116;2023-02-18T10:55:53;98725.66;;;11.49;90.04
18509;BME280;9383;50.928;12.116;2023-02-18T10:58:36;98719.50;;;11.48;90.18
18509;BME280;9383;50.928;12.116;2023-02-18T11:01:14;98730.13;;;11.48;89.85
18509;BME280;9383;50.928;12.116;2023-02-18T11:03:48;98715.97;;;11.48;89.54
18509;BME280;9383;50.928;12.116;2023-02-18T11:06:20;98717.97;;;11.43;89.00
18509;BME280;9383;50.928;12.116;2023-02-18T11:08:50;98711.13;;;11.37;88.85
18509;BME280;9383;50.928;12.116;2023-02-18T11:11:36;98709.53;;;11.33;89.22
18509;BME280;9383;50.928;12.116;2023-02-18T11:14:06;98706.94;;;11.31;89.72
18509;BME280;9383;50.928;12.116;2023-02-18T11:16:42;98707.06;;;11.28;89.64
18509;BME280;9383;50.928;12.116;2023-02-18T11:19:34;98711.50;;;11.28;90.25
18509;BME280;9383;50.928;12.116;2023-02-18T11:22:22;98704.56;;;11.25;89.26
18509;BME280;9383;50.928;12.116;2023-02-18T11:24:54;98711.63;;;11.24;89.63
18509;BME280;9383;50.928;12.116;2023-02-18T11:30:18;98712.75;;;11.19;89.06
18509;BME280;9383;50.928;12.116;2023-02-18T11:32:49;98714.75;;;11.14;89.33
18509;BME280;9383;50.928;12.116;2023-02-18T11:35:20;98713.03;;;11.13;89.35
18509;BME280;9383;50.928;12.116;2023-02-18T11:37:48;98705.97;;;11.11;89.14
18509;BME280;9383;50.928;12.116;2023-02-18T11:40:33;98697.72;;;10.97;88.49
18509;BME280;9383;50.928;12.116;2023-02-18T11:43:06;98700.31;;;10.98;89.39
18509;BME280;9383;50.928;12.116;2023-02-18T11:45:33;98702.91;;;11.00;89.23
18509;BME280;9383;50.928;12.116;2023-02-18T11:48:15;98684.34;;;11.00;89.55
18509;BME280;9383;50.928;12.116;2023-02-18T11:50:44;98687.91;;;10.99;89.42
18509;BME280;9383;50.928;12.116;2023-02-18T11:53:33;98677.50;;;10.94;88.69
18509;BME280;9383;50.928;12.116;2023-02-18T11:56:03;98679.22;;;10.95;88.69
18509;BME280;9383;50.928;12.116;2023-02-18T11:58:36;98681.97;;;10.92;88.15
18509;BME280;9383;50.928;12.116;2023-02-18T12:01:09;98651.81;;;10.95;86.99
18509;BME280;9383;50.928;12.116;2023-02-18T12:06:27;98660.75;;;10.92;85.57
18509;BME280;9383;50.928;12.116;2023-02-18T12:09:10;98653.88;;;10.88;85.72
18509;BME280;9383;50.928;12.116;2023-02-18T12:11:43;98640.56;;;10.90;86.38
18509;BME280;9383;50.928;12.116;2023-02-18T12:14:21;98641.50;;;10.89;85.13
18509;BME280;9383;50.928;12.116;2023-02-18T12:17:13;98643.31;;;10.87;85.45
18509;BME280;9383;50.928;12.116;2023-02-18T12:25:45;98660.66;;;10.95;84.45
18509;BME280;9383;50.928;12.116;2023-02-18T12:33:58;98678.72;;;10.86;80.17
18509;BME280;9383;50.928;12.116;2023-02-18T12:45:43;98651.81;;;10.95;79.08
18509;BME280;9383;50.928;12.116;2023-02-18T12:48:33;98653.53;;;10.96;77.93
18509;BME280;9383;50.928;12.116;2023-02-18T13:00:00;98628.44;;;11.05;78.16
18509;BME280;9383;50.928;12.116;2023-02-18T13:05:53;98651.19;;;11.10;76.94
18509;BME280;9383;50.928;12.116;2023-02-18T13:11:53;98665.00;;;11.19;75.65
18509;BME280;9383;50.928;12.116;2023-02-18T13:14:35;98662.28;;;11.20;74.85
18509;BME280;9383;50.928;12.116;2023-02-18T13:17:09;98666.59;;;11.23;74.43
18509;BME280;9383;50.928;12.116;2023-02-18T13:19:58;98652.47;;;11.22;73.90
18509;BME280;9383;50.928;12.116;2023-02-18T13:22:29;98658.72;;;11.21;74.30
18509;BME280;9383;50.928;12.116;2023-02-18T13:24:58;98670.31;;;11.19;74.91
18509;BME280;9383;50.928;12.116;2023-02-18T13:27:43;98673.00;;;11.17;76.02
18509;BME280;9383;50.928;12.116;2023-02-18T13:33:28;98664.53;;;11.09;76.30
18509;BME280;9383;50.928;12.116;2023-02-18T13:36:32;98668.97;;;11.08;76.53
18509;BME280;9383;50.928;12.116;2023-02-18T13:39:05;98662.06;;;11.04;78.00
18509;BME280;9383;50.928;12.116;2023-02-18T13:41:40;98659.59;;;11.00;78.09
18509;BME280;9383;50.928;12.116;2023-02-18T13:47:36;98661.38;;;10.99;77.85
18509;BME280;9383;50.928;12.116;2023-02-18T13:53:11;98649.91;;;10.98;77.02
18509;BME280;9383;50.928;12.116;2023-02-18T13:58:41;98653.41;;;10.99;77.02
18509;BME280;9383;50.928;12.116;2023-02-18T14:06:20;98649.13;;;10.96;76.31
18509;BME280;9383;50.928;12.116;2023-02-18T14:09:02;98655.41;;;10.94;76.45
18509;BME280;9383;50.928;12.116;2023-02-18T14:11:38;98658.00;;;10.95;76.67
18509;BME280;9383;50.928;12.116;2023-02-18T14:17:22;98650.91;;;10.96;76.84
18509;BME280;9383;50.928;12.116;2023-02-18T14:27:38;98664.25;;;10.94;77.34
18509;BME280;9383;50.928;12.116;2023-02-18T14:32:59;98673.91;;;10.95;77.65
18509;BME280;9383;50.928;12.116;2023-02-18T14:38:28;98684.72;;;10.91;78.06
18509;BME280;9383;50.928;12.116;2023-02-18T14:46:47;98688.41;;;10.87;78.79
18509;BME280;9383;50.928;12.116;2023-02-18T14:52:04;98704.38;;;10.85;78.78
18509;BME280;9383;50.928;12.116;2023-02-18T14:54:31;98701.97;;;10.79;79.56
18509;BME280;9383;50.928;12.116;2023-02-18T14:57:05;98702.03;;;10.77;79.09
18509;BME280;9383;50.928;12.116;2023-02-18T14:59:38;98689.75;;;10.75;79.21
18509;BME280;9383;50.928;12.116;2023-02-18T15:02:20;98702.28;;;10.71;79.28
18509;BME280;9383;50.928;12.116;2023-02-18T15:04:47;98697.88;;;10.70;78.66
18509;BME280;9383;50.928;12.116;2023-02-18T15:07:19;98697.97;;;10.68;78.93
18509;BME280;9383;50.928;12.116;2023-02-18T15:09:48;98675.88;;;10.68;78.92
18509;BME280;9383;50.928;12.116;2023-02-18T15:12:20;98693.50;;;10.69;79.03
18509;BME280;9383;50.928;12.116;2023-02-18T15:14:50;98693.50;;;10.69;79.72
18509;BME280;9383;50.928;12.116;2023-02-18T15:17:21;98695.41;;;10.65;79.97
18509;BME280;9383;50.928;12.116;2023-02-18T15:19:55;98704.13;;;10.69;79.91
18509;BME280;9383;50.928;12.116;2023-02-18T15:22:26;98696.22;;;10.67;80.02
18509;BME280;9383;50.928;12.116;2023-02-18T15:24:56;98698.03;;;10.67;79.84